Terminal Aerodrome Forecast
Issued by NWS

Home | Current Version | Previous Version | Text Only | Print | Product List | Glossary Off
Versions: 1 2 3 4 5 6 7 8 9 10 11 12 13 14 15 16 17 18 19

000
FTUS43 KICT 260522
TAFRSL
TAF
KRSL 260522Z 2606/2706 13007KT P6SM SCT200
      TEMPO 2609/2613 4SM BR BKN012
     FM261500 15007KT P6SM SCT030
     FM261900 14012KT P6SM FEW030
     FM270100 15007KT P6SM SCT030=

USA.gov is the U.S. government's official web portal to all federal, state and local government web resources and services.